createdAt,value
2016-03-12T00:00:59.298Z,0
2016-03-12T00:01:59.347Z,0
2016-03-12T00:02:59.428Z,0
2016-03-12T00:03:59.462Z,0
2016-03-12T00:04:59.526Z,0
2016-03-12T00:05:59.420Z,0
2016-03-12T00:06:59.619Z,0
2016-03-12T00:07:59.661Z,0
2016-03-12T00:08:59.695Z,0
2016-03-12T00:09:59.791Z,0
2016-03-12T00:10:59.793Z,0
2016-03-12T00:11:59.860Z,0
2016-03-12T00:12:59.909Z,0
2016-03-12T00:13:59.959Z,0
2016-03-12T00:15:00.023Z,0
2016-03-12T00:16:00.057Z,0
2016-03-12T00:17:00.106Z,0
2016-03-12T00:18:00.188Z,0
2016-03-12T00:19:00.222Z,0
2016-03-12T00:20:00.272Z,0
2016-03-12T00:21:00.320Z,0
2016-03-12T00:22:00.355Z,0
2016-03-12T00:23:00.389Z,0
2016-03-12T00:24:00.485Z,0
2016-03-12T00:25:00.503Z,0
2016-03-12T00:26:00.584Z,0
2016-03-12T00:27:00.603Z,0
2016-03-12T00:28:00.652Z,0
2016-03-12T00:29:00.749Z,0
2016-03-12T00:30:00.751Z,0
2016-03-12T00:31:00.817Z,0
2016-03-12T00:32:00.866Z,0
2016-03-12T00:33:00.900Z,0
2016-03-12T00:34:00.980Z,0
2016-03-12T00:35:01.030Z,0
2016-03-12T00:36:01.065Z,0
2016-03-12T00:37:01.099Z,0
2016-03-12T00:38:01.148Z,0
2016-03-12T00:39:01.198Z,0
2016-03-12T00:40:01.263Z,0
2016-03-12T00:41:01.328Z,0
2016-03-12T00:42:01.346Z,0
2016-03-12T00:43:01.286Z,0
2016-03-12T00:44:01.476Z,0
2016-03-12T00:45:01.495Z,0
2016-03-12T00:46:01.576Z,0
2016-03-12T00:47:01.656Z,0
2016-03-12T00:48:01.643Z,0
2016-03-12T00:49:01.567Z,0
2016-03-12T00:50:01.743Z,0
2016-03-12T00:51:01.808Z,0
2016-03-12T00:52:01.858Z,0
2016-03-12T00:53:01.907Z,0
2016-03-12T00:54:01.957Z,0
2016-03-12T00:55:02.037Z,0
2016-03-12T00:56:02.040Z,0
2016-03-12T00:57:02.136Z,0
2016-03-12T00:58:02.170Z,0
2016-03-12T00:59:02.220Z,0
2016-03-12T01:00:02.238Z,0
2016-03-12T01:01:02.335Z,0
2016-03-12T01:02:02.369Z,0
2016-03-12T01:03:02.402Z,0
2016-03-12T01:04:02.468Z,0
2016-03-12T01:05:02.549Z,0
2016-03-12T01:06:02.582Z,0
2016-03-12T01:07:02.664Z,0
2016-03-12T01:08:02.666Z,0
2016-03-12T01:09:02.700Z,0
2016-03-12T01:10:02.765Z,0
2016-03-12T01:11:02.815Z,0
2016-03-12T01:12:02.880Z,0
2016-03-12T01:13:02.899Z,0
2016-03-12T01:14:02.979Z,0
2016-03-12T01:15:03.013Z,0
2016-03-12T01:16:03.062Z,0
2016-03-12T01:17:03.128Z,0
2016-03-12T01:18:03.162Z,0
2016-03-12T01:19:03.212Z,0
2016-03-12T01:20:03.276Z,0
2016-03-12T01:21:03.311Z,0
2016-03-12T01:22:03.360Z,0
2016-03-12T01:23:03.394Z,0
2016-03-12T01:24:03.444Z,0
2016-03-12T01:25:03.539Z,0
2016-03-12T01:26:03.542Z,0
2016-03-12T01:27:03.592Z,0
2016-03-12T01:28:03.673Z,0
2016-03-12T01:29:03.707Z,0
2016-03-12T01:30:03.788Z,0
2016-03-12T01:31:03.806Z,0
2016-03-12T01:32:03.856Z,0
2016-03-12T01:33:03.936Z,0
2016-03-12T01:34:03.955Z,0
2016-03-12T01:35:04.005Z,0
2016-03-12T01:36:04.069Z,0
2016-03-12T01:37:04.119Z,0
2016-03-12T01:38:04.152Z,0
2016-03-12T01:39:04.218Z,0
2016-03-12T01:40:04.252Z,0
2016-03-12T01:41:04.318Z,0
2016-03-12T01:42:04.351Z,0
2016-03-12T01:43:04.416Z,0
2016-03-12T01:44:04.481Z,0
2016-03-12T01:45:04.500Z,0
2016-03-12T01:46:04.534Z,0
2016-03-12T01:47:04.631Z,0
2016-03-12T01:48:04.648Z,0
2016-03-12T01:49:03.949Z,0
2016-03-12T01:50:04.764Z,0
2016-03-12T01:51:04.813Z,0
2016-03-12T01:52:04.847Z,0
2016-03-12T01:53:04.928Z,0
2016-03-12T01:54:04.946Z,0
2016-03-12T01:55:05.028Z,0
2016-03-12T01:56:05.061Z,0
2016-03-12T01:57:05.094Z,0
2016-03-12T01:58:05.175Z,0
2016-03-12T01:59:05.209Z,0
2016-03-12T02:00:05.228Z,0
2016-03-12T02:01:05.324Z,0
2016-03-12T02:02:05.374Z,0
2016-03-12T02:03:05.424Z,0
2016-03-12T02:04:05.442Z,0
2016-03-12T02:05:05.507Z,0
2016-03-12T02:06:05.557Z,0
2016-03-12T02:07:05.605Z,0
2016-03-12T02:08:05.641Z,0
2016-03-12T02:09:05.721Z,0
2016-03-12T02:10:05.771Z,0
2016-03-12T02:11:05.788Z,0
2016-03-12T02:12:05.854Z,0
2016-03-12T02:13:05.919Z,0
2016-03-12T02:14:05.938Z,0
2016-03-12T02:15:06.002Z,0
2016-03-12T02:16:06.052Z,0
2016-03-12T02:17:06.118Z,0
2016-03-12T02:18:06.136Z,0
2016-03-12T02:19:06.217Z,0
2016-03-12T02:20:06.234Z,0
2016-03-12T02:21:06.331Z,0
2016-03-12T02:22:06.350Z,0
2016-03-12T02:23:06.384Z,0
2016-03-12T02:24:06.464Z,0
2016-03-12T02:25:06.498Z,0
2016-03-12T02:26:06.547Z,0
2016-03-12T02:27:06.644Z,0
2016-03-12T02:28:06.662Z,0
2016-03-12T02:29:06.696Z,0
2016-03-12T02:30:06.762Z,0
2016-03-12T02:31:06.795Z,0
2016-03-12T02:32:06.861Z,0
2016-03-12T02:33:06.894Z,0
2016-03-12T02:34:06.928Z,0
2016-03-12T02:35:07.024Z,0
2016-03-12T02:36:07.059Z,0
2016-03-12T02:37:07.093Z,0
2016-03-12T02:38:07.143Z,0
2016-03-12T02:39:07.207Z,0
2016-03-12T02:40:07.241Z,0
2016-03-12T02:41:07.307Z,0
2016-03-12T02:42:07.356Z,0
2016-03-12T02:43:07.374Z,0
2016-03-12T02:44:07.455Z,0
2016-03-12T02:45:07.505Z,0
2016-03-12T02:46:07.585Z,0
2016-03-12T02:47:07.588Z,0
2016-03-12T02:48:07.653Z,0
2016-03-12T02:49:07.704Z,0
2016-03-12T02:50:07.737Z,0
2016-03-12T02:51:07.803Z,0
2016-03-12T02:52:07.851Z,0
2016-03-12T02:53:07.886Z,0
2016-03-12T02:54:07.950Z,0
2016-03-12T02:55:08.001Z,0
2016-03-12T02:56:08.050Z,0
2016-03-12T02:57:08.100Z,0
2016-03-12T02:58:08.165Z,0
2016-03-12T02:59:08.215Z,0
2016-03-12T03:00:08.248Z,0
2016-03-12T03:01:08.313Z,0
2016-03-12T03:02:08.363Z,0
2016-03-12T03:03:08.397Z,0
2016-03-12T03:04:08.431Z,0
2016-03-12T03:05:08.511Z,0
2016-03-12T03:06:08.405Z,0
2016-03-12T03:07:08.580Z,0
2016-03-12T03:08:08.645Z,0
2016-03-12T03:09:08.710Z,0
2016-03-12T03:10:08.775Z,0
2016-03-12T03:11:08.794Z,0
2016-03-12T03:12:08.828Z,0
2016-03-12T03:13:08.940Z,0
2016-03-12T03:14:08.957Z,0
2016-03-12T03:15:08.992Z,0
2016-03-12T03:16:09.057Z,0
2016-03-12T03:17:09.076Z,0
2016-03-12T03:18:09.140Z,0
2016-03-12T03:19:09.190Z,0
2016-03-12T03:20:09.223Z,0
2016-03-12T03:21:09.305Z,0
2016-03-12T03:22:09.323Z,0
2016-03-12T03:23:09.373Z,0
2016-03-12T03:24:09.438Z,0
2016-03-12T03:25:09.472Z,0
2016-03-12T03:26:09.553Z,0
2016-03-12T03:27:09.586Z,0
2016-03-12T03:28:09.636Z,0
2016-03-12T03:29:09.670Z,0
2016-03-12T03:30:09.736Z,0
2016-03-12T03:31:09.785Z,0
2016-03-12T03:32:09.834Z,0
2016-03-12T03:33:09.884Z,0
2016-03-12T03:34:09.934Z,0
2016-03-12T03:35:09.967Z,0
2016-03-12T03:36:09.283Z,0
2016-03-12T03:37:10.067Z,0
2016-03-12T03:38:10.147Z,0
2016-03-12T03:39:10.166Z,0
2016-03-12T03:40:10.215Z,0
2016-03-12T03:41:10.297Z,0
2016-03-12T03:42:10.330Z,0
2016-03-12T03:43:09.630Z,0
2016-03-12T03:44:10.429Z,0
2016-03-12T03:45:10.479Z,0
2016-03-12T03:46:10.544Z,0
2016-03-12T03:47:10.579Z,0
2016-03-12T03:48:10.627Z,0
2016-03-12T03:49:10.677Z,0
2016-03-12T03:50:10.712Z,0
2016-03-12T03:51:10.776Z,0
2016-03-12T03:52:10.825Z,0
2016-03-12T03:53:10.875Z,0
2016-03-12T03:54:10.909Z,0
2016-03-12T03:55:10.990Z,0
2016-03-12T03:56:11.023Z,0
2016-03-12T03:57:11.073Z,0
2016-03-12T03:58:11.123Z,0
2016-03-12T03:59:11.173Z,0
2016-03-12T04:00:11.238Z,0
2016-03-12T04:01:11.272Z,0
2016-03-12T04:02:11.322Z,0
2016-03-12T04:03:11.387Z,0
2016-03-12T04:04:11.420Z,0
2016-03-12T04:05:11.485Z,0
2016-03-12T04:06:11.520Z,0
2016-03-12T04:07:11.585Z,0
2016-03-12T04:08:11.619Z,0
2016-03-12T04:09:11.668Z,0
2016-03-12T04:10:11.718Z,0
2016-03-12T04:11:11.783Z,0
2016-03-12T04:12:11.833Z,0
2016-03-12T04:13:11.866Z,0
2016-03-12T04:14:11.916Z,0
2016-03-12T04:15:11.966Z,0
2016-03-12T04:16:12.015Z,0
2016-03-12T04:17:12.080Z,0
2016-03-12T04:18:12.114Z,0
2016-03-12T04:19:12.196Z,0
2016-03-12T04:20:12.213Z,0
2016-03-12T04:21:12.263Z,0
2016-03-12T04:22:12.312Z,0
2016-03-12T04:23:12.362Z,0
2016-03-12T04:24:12.428Z,0
2016-03-12T04:25:12.461Z,0
2016-03-12T04:26:12.512Z,0
2016-03-12T04:27:12.561Z,0
2016-03-12T04:28:12.626Z,0
2016-03-12T04:29:12.675Z,0
2016-03-12T04:30:12.740Z,0
2016-03-12T04:31:12.775Z,0
2016-03-12T04:32:12.809Z,0
2016-03-12T04:33:12.873Z,0
2016-03-12T04:34:12.922Z,0
2016-03-12T04:35:12.957Z,0
2016-03-12T04:36:13.022Z,0
2016-03-12T04:37:13.103Z,0
2016-03-12T04:38:13.121Z,0
2016-03-12T04:39:13.156Z,0
2016-03-12T04:40:13.236Z,0
2016-03-12T04:41:13.270Z,0
2016-03-12T04:42:13.304Z,0
2016-03-12T04:43:13.369Z,0
2016-03-12T04:44:13.419Z,0
2016-03-12T04:45:13.452Z,0
2016-03-12T04:46:13.518Z,0
2016-03-12T04:47:13.551Z,0
2016-03-12T04:48:13.633Z,0
2016-03-12T04:49:13.651Z,0
2016-03-12T04:50:13.732Z,0
2016-03-12T04:51:13.766Z,0
2016-03-12T04:52:13.832Z,0
2016-03-12T04:53:13.849Z,0
2016-03-12T04:54:13.914Z,0
2016-03-12T04:55:13.948Z,0
2016-03-12T04:56:14.029Z,0
2016-03-12T04:57:14.063Z,0
2016-03-12T04:58:14.098Z,0
2016-03-12T04:59:14.162Z,0
2016-03-12T05:00:14.212Z,0
2016-03-12T05:01:14.278Z,0
2016-03-12T05:02:14.311Z,0
2016-03-12T05:03:14.345Z,0
2016-03-12T05:04:14.411Z,0
2016-03-12T05:05:14.459Z,0
2016-03-12T05:06:14.337Z,0
2016-03-12T05:07:14.452Z,0
2016-03-12T05:08:14.594Z,0
2016-03-12T05:09:14.660Z,0
2016-03-12T05:10:14.709Z,0
2016-03-12T05:11:14.774Z,0
2016-03-12T05:12:14.792Z,0
2016-03-12T05:13:14.858Z,0
2016-03-12T05:14:14.923Z,0
2016-03-12T05:15:14.942Z,0
2016-03-12T05:16:14.975Z,0
2016-03-12T05:17:15.118Z,0
2016-03-12T05:18:15.084Z,0
2016-03-12T05:19:15.135Z,0
2016-03-12T05:20:15.172Z,0
2016-03-12T05:21:15.192Z,0
2016-03-12T05:22:15.259Z,0
2016-03-12T05:23:15.284Z,0
2016-03-12T05:24:15.329Z,0
2016-03-12T05:25:15.359Z,0
2016-03-12T05:26:15.419Z,0
2016-03-12T05:27:15.464Z,0
2016-03-12T05:28:15.512Z,0
2016-03-12T05:29:15.543Z,0
2016-03-12T05:30:15.606Z,0
2016-03-12T05:31:15.654Z,0
2016-03-12T05:32:15.686Z,0
2016-03-12T05:33:15.735Z,0
2016-03-12T05:34:15.815Z,0
2016-03-12T05:35:15.848Z,0
2016-03-12T05:36:15.881Z,0
2016-03-12T05:37:15.931Z,0
2016-03-12T05:38:15.996Z,0
2016-03-12T05:39:16.030Z,0
2016-03-12T05:40:16.096Z,4
2016-03-12T05:41:16.145Z,4
2016-03-12T05:42:16.210Z,4
2016-03-12T05:43:16.244Z,0
2016-03-12T05:44:16.294Z,0
2016-03-12T05:45:16.328Z,0
2016-03-12T05:46:16.392Z,4
2016-03-12T05:47:16.426Z,4
2016-03-12T05:48:16.491Z,4
2016-03-12T05:49:16.541Z,4
2016-03-12T05:50:16.575Z,4
2016-03-12T05:51:16.640Z,4
2016-03-12T05:52:16.690Z,4
2016-03-12T05:53:16.739Z,4
2016-03-12T05:54:16.789Z,8
2016-03-12T05:55:16.854Z,4
2016-03-12T05:56:16.888Z,8
2016-03-12T05:57:16.188Z,8
2016-03-12T05:58:16.988Z,8
2016-03-12T05:59:17.021Z,8
2016-03-12T06:00:17.086Z,8
2016-03-12T06:01:17.121Z,8
2016-03-12T06:02:17.170Z,8
2016-03-12T06:03:17.235Z,12
2016-03-12T06:04:17.269Z,12
2016-03-12T06:05:17.351Z,12
2016-03-12T06:06:17.384Z,12
2016-03-12T06:07:17.418Z,12
2016-03-12T06:08:17.467Z,16
2016-03-12T06:09:17.532Z,16
2016-03-12T06:10:17.567Z,20
2016-03-12T06:11:17.631Z,20
2016-03-12T06:12:17.681Z,20
2016-03-12T06:13:17.730Z,24
2016-03-12T06:14:17.781Z,20
2016-03-12T06:15:17.845Z,24
2016-03-12T06:16:17.880Z,24
2016-03-12T06:17:17.929Z,24
2016-03-12T06:18:17.978Z,24
2016-03-12T06:19:18.044Z,28
2016-03-12T06:20:18.077Z,28
2016-03-12T06:21:18.111Z,32
2016-03-12T06:22:18.192Z,32
2016-03-12T06:23:18.211Z,36
2016-03-12T06:24:18.276Z,36
2016-03-12T06:25:18.325Z,36
2016-03-12T06:26:18.360Z,40
2016-03-12T06:27:18.425Z,44
2016-03-12T06:28:18.474Z,44
2016-03-12T06:29:18.524Z,44
2016-03-12T06:30:18.574Z,48
2016-03-12T06:31:18.623Z,52
2016-03-12T06:32:18.657Z,52
2016-03-12T06:33:18.737Z,52
2016-03-12T06:34:18.772Z,52
2016-03-12T06:35:18.821Z,56
2016-03-12T06:36:18.871Z,60
2016-03-12T06:37:18.904Z,60
2016-03-12T06:38:18.985Z,60
2016-03-12T06:39:19.035Z,64
2016-03-12T06:40:19.053Z,60
2016-03-12T06:41:19.118Z,60
2016-03-12T06:42:19.168Z,60
2016-03-12T06:43:19.203Z,64
2016-03-12T06:44:19.267Z,64
2016-03-12T06:45:19.301Z,64
2016-03-12T06:46:19.351Z,64
2016-03-12T06:47:19.432Z,64
2016-03-12T06:48:19.466Z,72
2016-03-12T06:49:19.499Z,76
2016-03-12T06:50:19.580Z,80
2016-03-12T06:51:19.599Z,80
2016-03-12T06:52:19.664Z,80
2016-03-12T06:53:19.729Z,88
2016-03-12T06:54:19.778Z,92
2016-03-12T06:55:19.781Z,96
2016-03-12T06:56:19.862Z,96
2016-03-12T06:57:19.161Z,104
2016-03-12T06:58:19.945Z,100
2016-03-12T06:59:20.027Z,100
2016-03-12T07:00:20.060Z,88
2016-03-12T07:01:20.110Z,80
2016-03-12T07:02:20.159Z,68
2016-03-12T07:03:20.209Z,56
2016-03-12T07:04:20.243Z,56
2016-03-12T07:05:20.307Z,52
2016-03-12T07:06:20.358Z,48
2016-03-12T07:07:20.423Z,48
2016-03-12T07:08:20.488Z,48
2016-03-12T07:09:20.490Z,48
2016-03-12T07:10:20.556Z,52
2016-03-12T07:11:20.668Z,56
2016-03-12T07:12:20.639Z,56
2016-03-12T07:13:20.689Z,56
2016-03-12T07:14:20.753Z,56
2016-03-12T07:15:20.804Z,56
2016-03-12T07:16:20.869Z,56
2016-03-12T07:17:20.903Z,52
2016-03-12T07:18:20.937Z,52
2016-03-12T07:19:21.018Z,52
2016-03-12T07:20:21.052Z,48
2016-03-12T07:21:21.085Z,48
2016-03-12T07:22:21.150Z,48
2016-03-12T07:23:21.200Z,48
2016-03-12T07:24:21.234Z,48
2016-03-12T07:25:21.299Z,44
2016-03-12T07:26:21.333Z,44
2016-03-12T07:27:21.399Z,44
2016-03-12T07:28:21.449Z,44
2016-03-12T07:29:21.482Z,44
2016-03-12T07:30:21.547Z,48
2016-03-12T07:31:21.597Z,44
2016-03-12T07:32:21.630Z,40
2016-03-12T07:33:21.696Z,40
2016-03-12T07:34:21.729Z,40
2016-03-12T07:35:21.780Z,44
2016-03-12T07:36:21.845Z,40
2016-03-12T07:37:21.879Z,40
2016-03-12T07:38:21.943Z,44
2016-03-12T07:39:21.993Z,40
2016-03-12T07:40:22.027Z,44
2016-03-12T07:41:22.092Z,44
2016-03-12T07:42:22.127Z,48
2016-03-12T07:43:22.192Z,48
2016-03-12T07:44:22.226Z,52
2016-03-12T07:45:22.259Z,52
2016-03-12T07:46:22.325Z,52
2016-03-12T07:47:22.375Z,52
2016-03-12T07:48:22.423Z,52
2016-03-12T07:49:22.489Z,52
2016-03-12T07:50:22.522Z,56
2016-03-12T07:51:22.588Z,52
2016-03-12T07:52:22.638Z,52
2016-03-12T07:53:22.671Z,52
2016-03-12T07:54:22.581Z,56
2016-03-12T07:55:22.771Z,56
2016-03-12T07:56:22.820Z,52
2016-03-12T07:57:22.901Z,56
2016-03-12T07:58:22.935Z,60
2016-03-12T07:59:22.969Z,56
2016-03-12T08:00:23.034Z,60
2016-03-12T08:01:23.083Z,60
2016-03-12T08:02:23.179Z,60
2016-03-12T08:03:23.199Z,68
2016-03-12T08:04:23.216Z,64
2016-03-12T08:05:23.266Z,64
2016-03-12T08:06:23.332Z,68
2016-03-12T08:07:23.366Z,68
2016-03-12T08:08:23.431Z,72
2016-03-12T08:09:24.480Z,76
2016-03-12T08:10:23.529Z,76
2016-03-12T08:11:23.564Z,76
2016-03-12T08:12:23.613Z,76
2016-03-12T08:13:23.679Z,76
2016-03-12T08:14:23.712Z,72
2016-03-12T08:15:23.778Z,72
2016-03-12T08:16:23.812Z,76
2016-03-12T08:17:23.876Z,80
2016-03-12T08:18:23.926Z,80
2016-03-12T08:19:23.961Z,84
2016-03-12T08:20:24.025Z,92
2016-03-12T08:21:24.059Z,92
2016-03-12T08:22:24.125Z,88
2016-03-12T08:23:24.158Z,92
2016-03-12T08:24:24.208Z,88
2016-03-12T08:25:24.258Z,88
2016-03-12T08:26:24.307Z,92
2016-03-12T08:27:24.357Z,88
2016-03-12T08:28:24.406Z,92
2016-03-12T08:29:24.471Z,96
2016-03-12T08:30:24.506Z,96
2016-03-12T08:31:24.555Z,96
2016-03-12T08:32:24.605Z,96
2016-03-12T08:33:24.654Z,96
2016-03-12T08:34:24.719Z,92
2016-03-12T08:35:24.754Z,92
2016-03-12T08:36:24.802Z,88
2016-03-12T08:37:24.852Z,84
2016-03-12T08:38:24.902Z,80
2016-03-12T08:39:24.952Z,80
2016-03-12T08:40:25.017Z,76
2016-03-12T08:41:25.066Z,76
2016-03-12T08:42:25.101Z,76
2016-03-12T08:43:25.150Z,72
2016-03-12T08:44:25.198Z,72
2016-03-12T08:45:25.248Z,76
2016-03-12T08:46:25.298Z,72
2016-03-12T08:47:25.379Z,76
2016-03-12T08:48:25.397Z,76
2016-03-12T08:49:25.447Z,76
2016-03-12T08:50:25.512Z,76
2016-03-12T08:51:25.547Z,80
2016-03-12T08:52:25.611Z,84
2016-03-12T08:53:25.645Z,84
2016-03-12T08:54:25.695Z,88
2016-03-12T08:55:25.760Z,96
2016-03-12T08:56:25.794Z,96
2016-03-12T08:57:25.858Z,92
2016-03-12T08:58:25.894Z,92
2016-03-12T08:59:25.943Z,92
2016-03-12T09:00:25.992Z,92
2016-03-12T09:01:26.041Z,92
2016-03-12T09:02:26.107Z,88
2016-03-12T09:03:26.141Z,88
2016-03-12T09:04:26.190Z,92
2016-03-12T09:05:26.256Z,92
2016-03-12T09:06:26.290Z,88
2016-03-12T09:07:26.355Z,92
2016-03-12T09:08:26.373Z,92
2016-03-12T09:09:26.438Z,92
2016-03-12T09:10:26.488Z,92
2016-03-12T09:11:26.553Z,92
2016-03-12T09:12:26.587Z,92
2016-03-12T09:13:26.636Z,92
2016-03-12T09:14:26.687Z,92
2016-03-12T09:15:26.736Z,92
2016-03-12T09:16:26.785Z,96
2016-03-12T09:17:26.835Z,100
2016-03-12T09:18:26.884Z,100
2016-03-12T09:19:26.934Z,96
2016-03-12T09:20:26.984Z,96
2016-03-12T09:21:27.034Z,100
2016-03-12T09:22:27.083Z,104
2016-03-12T09:23:27.133Z,104
2016-03-12T09:24:27.181Z,104
2016-03-12T09:25:27.231Z,108
2016-03-12T09:26:27.281Z,108
2016-03-12T09:27:27.330Z,112
2016-03-12T09:28:27.397Z,116
2016-03-12T09:29:27.430Z,112
2016-03-12T09:30:27.480Z,116
2016-03-12T09:31:27.529Z,116
2016-03-12T09:32:27.578Z,112
2016-03-12T09:33:27.628Z,116
2016-03-12T09:34:27.677Z,120
2016-03-12T09:35:27.742Z,124
2016-03-12T09:36:27.776Z,124
2016-03-12T09:37:27.826Z,128
2016-03-12T09:38:27.876Z,132
2016-03-12T09:39:27.909Z,132
2016-03-12T09:40:27.960Z,128
2016-03-12T09:41:28.024Z,128
2016-03-12T09:42:28.073Z,128
2016-03-12T09:43:28.123Z,132
2016-03-12T09:44:28.173Z,132
2016-03-12T09:45:28.238Z,132
2016-03-12T09:46:28.256Z,124
2016-03-12T09:47:28.322Z,124
2016-03-12T09:48:28.387Z,124
2016-03-12T09:49:28.421Z,128
2016-03-12T09:50:28.470Z,132
2016-03-12T09:51:28.520Z,136
2016-03-12T09:52:28.570Z,136
2016-03-12T09:53:28.619Z,136
2016-03-12T09:54:28.669Z,140
2016-03-12T09:55:28.719Z,140
2016-03-12T09:56:28.767Z,148
2016-03-12T09:57:28.817Z,152
2016-03-12T09:58:28.866Z,152
2016-03-12T09:59:28.916Z,160
2016-03-12T10:00:28.966Z,164
2016-03-12T10:01:29.047Z,160
2016-03-12T10:02:29.065Z,164
2016-03-12T10:03:29.115Z,160
2016-03-12T10:04:29.149Z,160
2016-03-12T10:05:29.213Z,156
2016-03-12T10:06:29.107Z,164
2016-03-12T10:07:29.307Z,160
2016-03-12T10:08:29.420Z,160
2016-03-12T10:09:29.406Z,160
2016-03-12T10:10:29.456Z,168
2016-03-12T10:11:29.506Z,176
2016-03-12T10:12:29.555Z,176
2016-03-12T10:13:29.604Z,160
2016-03-12T10:14:29.654Z,152
2016-03-12T10:15:29.704Z,152
2016-03-12T10:16:29.769Z,144
2016-03-12T10:17:29.803Z,140
2016-03-12T10:18:29.868Z,128
2016-03-12T10:19:29.902Z,124
2016-03-12T10:20:29.952Z,128
2016-03-12T10:21:30.001Z,124
2016-03-12T10:22:30.067Z,120
2016-03-12T10:23:30.100Z,156
2016-03-12T10:24:30.149Z,112
2016-03-12T10:25:30.215Z,108
2016-03-12T10:26:30.249Z,108
2016-03-12T10:27:30.299Z,100
2016-03-12T10:28:30.348Z,96
2016-03-12T10:29:30.398Z,96
2016-03-12T10:30:30.275Z,92
2016-03-12T10:31:30.512Z,88
2016-03-12T10:32:30.546Z,84
2016-03-12T10:33:30.596Z,80
2016-03-12T10:34:30.645Z,84
2016-03-12T10:35:30.695Z,84
2016-03-12T10:36:30.759Z,84
2016-03-12T10:37:30.789Z,88
2016-03-12T10:38:30.869Z,88
2016-03-12T10:39:30.903Z,84
2016-03-12T10:40:30.936Z,84
2016-03-12T10:41:31.003Z,84
2016-03-12T10:42:31.036Z,84
2016-03-12T10:43:31.133Z,84
2016-03-12T10:44:31.151Z,88
2016-03-12T10:45:31.185Z,92
2016-03-12T10:46:31.265Z,92
2016-03-12T10:47:31.300Z,88
2016-03-12T10:48:31.333Z,92
2016-03-12T10:49:31.414Z,96
2016-03-12T10:50:31.433Z,88
2016-03-12T10:51:31.497Z,88
2016-03-12T10:52:31.532Z,88
2016-03-12T10:53:31.440Z,84
2016-03-12T10:54:31.631Z,88
2016-03-12T10:55:31.680Z,84
2016-03-12T10:56:31.730Z,84
2016-03-12T10:57:31.779Z,84
2016-03-12T10:58:31.845Z,80
2016-03-12T10:59:31.879Z,80
2016-03-12T11:00:31.928Z,76
2016-03-12T11:01:31.978Z,72
2016-03-12T11:02:32.026Z,76
2016-03-12T11:03:32.077Z,72
2016-03-12T11:04:32.126Z,68
2016-03-12T11:05:32.207Z,72
2016-03-12T11:06:32.226Z,72
2016-03-12T11:07:32.275Z,68
2016-03-12T11:08:32.340Z,72
2016-03-12T11:09:32.374Z,72
2016-03-12T11:10:32.424Z,72
2016-03-12T11:11:32.458Z,76
2016-03-12T11:12:32.523Z,76
2016-03-12T11:13:32.572Z,72
2016-03-12T11:14:32.622Z,72
2016-03-12T11:15:32.672Z,72
2016-03-12T11:16:32.736Z,68
2016-03-12T11:17:32.772Z,68
2016-03-12T11:18:32.852Z,68
2016-03-12T11:19:32.885Z,72
2016-03-12T11:20:32.919Z,72
2016-03-12T11:21:33.000Z,68
2016-03-12T11:22:33.001Z,68
2016-03-12T11:23:33.036Z,64
2016-03-12T11:24:32.946Z,68
2016-03-12T11:25:33.170Z,68
2016-03-12T11:26:33.235Z,68
2016-03-12T11:27:33.254Z,68
2016-03-12T11:28:33.319Z,68
2016-03-12T11:29:33.385Z,68
2016-03-12T11:30:33.418Z,68
2016-03-12T11:31:33.467Z,72
2016-03-12T11:32:33.518Z,68
2016-03-12T11:33:33.566Z,68
2016-03-12T11:34:32.866Z,72
2016-03-12T11:35:33.666Z,72
2016-03-12T11:36:33.731Z,72
2016-03-12T11:37:33.749Z,68
2016-03-12T11:38:33.658Z,72
2016-03-12T11:39:33.865Z,68
2016-03-12T11:40:33.914Z,72
2016-03-12T11:41:33.963Z,72
2016-03-12T11:42:34.012Z,72
2016-03-12T11:43:34.047Z,72
2016-03-12T11:44:34.112Z,72
2016-03-12T11:45:34.145Z,72
2016-03-12T11:46:34.212Z,72
2016-03-12T11:47:34.276Z,72
2016-03-12T11:48:34.311Z,72
2016-03-12T11:49:34.359Z,72
2016-03-12T11:50:34.394Z,72
2016-03-12T11:51:34.459Z,72
2016-03-12T11:52:34.508Z,72
2016-03-12T11:53:34.542Z,68
2016-03-12T11:54:34.608Z,68
2016-03-12T11:55:34.657Z,68
2016-03-12T11:56:34.707Z,68
2016-03-12T11:57:34.756Z,72
2016-03-12T11:58:34.822Z,72
2016-03-12T11:59:34.871Z,72
2016-03-12T12:00:34.889Z,72
2016-03-12T12:01:34.955Z,72
2016-03-12T12:02:35.005Z,72
2016-03-12T12:03:35.054Z,72
2016-03-12T12:04:35.087Z,72
2016-03-12T12:05:35.152Z,72
2016-03-12T12:06:35.202Z,72
2016-03-12T12:07:35.236Z,76
2016-03-12T12:08:35.286Z,76
2016-03-12T12:09:35.335Z,72
2016-03-12T12:10:35.385Z,72
2016-03-12T12:11:35.434Z,72
2016-03-12T12:12:35.500Z,72
2016-03-12T12:13:35.534Z,72
2016-03-12T12:14:34.848Z,72
2016-03-12T12:15:35.648Z,72
2016-03-12T12:16:35.698Z,76
2016-03-12T12:17:35.731Z,76
2016-03-12T12:18:35.781Z,76
2016-03-12T12:19:35.831Z,76
2016-03-12T12:20:35.881Z,76
2016-03-12T12:21:35.946Z,76
2016-03-12T12:22:35.980Z,76
2016-03-12T12:23:36.030Z,80
2016-03-12T12:24:36.079Z,80
2016-03-12T12:25:36.144Z,80
2016-03-12T12:26:36.177Z,84
2016-03-12T12:27:36.228Z,76
2016-03-12T12:28:36.136Z,80
2016-03-12T12:29:36.327Z,76
2016-03-12T12:30:36.377Z,76
2016-03-12T12:31:36.426Z,76
2016-03-12T12:32:36.475Z,76
2016-03-12T12:33:36.524Z,72
2016-03-12T12:34:36.575Z,72
2016-03-12T12:35:36.655Z,68
2016-03-12T12:36:36.674Z,72
2016-03-12T12:37:36.707Z,68
2016-03-12T12:38:36.773Z,68
2016-03-12T12:39:36.822Z,72
2016-03-12T12:40:36.871Z,72
2016-03-12T12:41:36.921Z,76
2016-03-12T12:42:36.987Z,76
2016-03-12T12:43:37.020Z,80
2016-03-12T12:44:37.226Z,80
2016-03-12T12:45:37.120Z,80
2016-03-12T12:46:37.200Z,80
2016-03-12T12:47:37.219Z,76
2016-03-12T12:48:37.283Z,80
2016-03-12T12:49:37.318Z,80
2016-03-12T12:50:37.398Z,76
2016-03-12T12:51:37.417Z,76
2016-03-12T12:52:37.467Z,76
2016-03-12T12:53:37.516Z,68
2016-03-12T12:54:37.566Z,72
2016-03-12T12:55:37.616Z,68
2016-03-12T12:56:37.681Z,68
2016-03-12T12:57:37.714Z,52
2016-03-12T12:58:37.763Z,68
2016-03-12T12:59:37.813Z,68
2016-03-12T13:00:37.691Z,64
2016-03-12T13:01:37.913Z,64
2016-03-12T13:02:37.963Z,64
2016-03-12T13:03:38.013Z,64
2016-03-12T13:04:38.077Z,68
2016-03-12T13:05:38.110Z,64
2016-03-12T13:06:37.411Z,68
2016-03-12T13:07:38.226Z,72
2016-03-12T13:08:38.244Z,76
2016-03-12T13:09:38.481Z,76
2016-03-12T13:10:38.374Z,76
2016-03-12T13:11:38.393Z,76
2016-03-12T13:12:38.457Z,76
2016-03-12T13:13:38.508Z,76
2016-03-12T13:14:38.557Z,76
2016-03-12T13:15:38.623Z,76
2016-03-12T13:16:38.640Z,76
2016-03-12T13:17:38.706Z,76
2016-03-12T13:18:38.756Z,76
2016-03-12T13:19:38.789Z,72
2016-03-12T13:20:38.870Z,76
2016-03-12T13:21:38.889Z,76
2016-03-12T13:22:38.953Z,76
2016-03-12T13:23:39.003Z,72
2016-03-12T13:24:39.037Z,72
2016-03-12T13:25:39.117Z,76
2016-03-12T13:26:39.152Z,76
2016-03-12T13:27:39.216Z,76
2016-03-12T13:28:39.251Z,72
2016-03-12T13:29:39.285Z,72
2016-03-12T13:30:39.350Z,76
2016-03-12T13:31:39.384Z,76
2016-03-12T13:32:39.449Z,80
2016-03-12T13:33:39.483Z,80
2016-03-12T13:34:39.533Z,76
2016-03-12T13:35:39.599Z,76
2016-03-12T13:36:39.632Z,76
2016-03-12T13:37:39.540Z,76
2016-03-12T13:38:39.747Z,80
2016-03-12T13:39:39.780Z,76
2016-03-12T13:40:39.846Z,76
2016-03-12T13:41:39.879Z,76
2016-03-12T13:42:39.945Z,76
2016-03-12T13:43:39.979Z,76
2016-03-12T13:44:40.043Z,76
2016-03-12T13:45:40.329Z,72
2016-03-12T13:46:40.128Z,72
2016-03-12T13:47:40.177Z,68
2016-03-12T13:48:40.226Z,68
2016-03-12T13:49:40.276Z,64
2016-03-12T13:50:40.325Z,64
2016-03-12T13:51:40.375Z,68
2016-03-12T13:52:40.424Z,68
2016-03-12T13:53:40.475Z,64
2016-03-12T13:54:40.524Z,64
2016-03-12T13:55:40.573Z,64
2016-03-12T13:56:40.623Z,64
2016-03-12T13:57:40.672Z,64
2016-03-12T13:58:40.706Z,64
2016-03-12T13:59:40.771Z,60
2016-03-12T14:00:40.822Z,60
2016-03-12T14:01:40.871Z,60
2016-03-12T14:02:40.904Z,60
2016-03-12T14:03:40.969Z,60
2016-03-12T14:04:41.019Z,64
2016-03-12T14:05:41.069Z,64
2016-03-12T14:06:40.966Z,60
2016-03-12T14:07:41.157Z,60
2016-03-12T14:08:41.238Z,60
2016-03-12T14:09:41.257Z,60
2016-03-12T14:10:41.291Z,64
2016-03-12T14:11:41.356Z,68
2016-03-12T14:12:41.421Z,76
2016-03-12T14:13:41.471Z,80
2016-03-12T14:14:41.504Z,80
2016-03-12T14:15:41.570Z,92
2016-03-12T14:16:41.603Z,88
2016-03-12T14:17:41.653Z,84
2016-03-12T14:18:41.750Z,80
2016-03-12T14:19:41.752Z,88
2016-03-12T14:20:41.802Z,80
2016-03-12T14:21:41.867Z,88
2016-03-12T14:22:41.947Z,80
2016-03-12T14:23:41.944Z,76
2016-03-12T14:24:41.978Z,84
2016-03-12T14:25:42.060Z,76
2016-03-12T14:26:42.049Z,92